sensor_id;sensor_type;location;lat;lon;timestamp;P1;durP1;ratioP1;P2;durP2;ratioP2
4206;SDS011;2117;47.972;7.830;2023-07-02T01:02:16;10.33;;;4.50;;
4206;SDS011;2117;47.972;7.830;2023-07-02T01:04:42;5.13;;;4.17;;
4206;SDS011;2117;47.972;7.830;2023-07-02T01:07:10;8.00;;;4.03;;
4206;SDS011;2117;47.972;7.830;2023-07-02T01:09:36;7.53;;;4.10;;
4206;SDS011;2117;47.972;7.830;2023-07-02T01:12:03;9.03;;;3.60;;
4206;SDS011;2117;47.972;7.830;2023-07-02T01:14:36;6.07;;;4.17;;
4206;SDS011;2117;47.972;7.830;2023-07-02T01:17:04;4.33;;;3.93;;
4206;SDS011;2117;47.972;7.830;2023-07-02T01:22:19;8.33;;;4.80;;
4206;SDS011;2117;47.972;7.830;2023-07-02T01:24:49;5.30;;;4.07;;
4206;SDS011;2117;47.972;7.830;2023-07-02T01:27:16;7.37;;;4.30;;
4206;SDS011;2117;47.972;7.830;2023-07-02T01:29:42;4.50;;;3.80;;
4206;SDS011;2117;47.972;7.830;2023-07-02T01:32:10;4.73;;;4.27;;
4206;SDS011;2117;47.972;7.830;2023-07-02T01:34:35;8.67;;;5.30;;
4206;SDS011;2117;47.972;7.830;2023-07-02T01:37:01;5.03;;;4.03;;
4206;SDS011;2117;47.972;7.830;2023-07-02T01:39:29;5.17;;;4.10;;
4206;SDS011;2117;47.972;7.830;2023-07-02T01:44:33;10.13;;;4.47;;
4206;SDS011;2117;47.972;7.830;2023-07-02T01:46:58;6.80;;;4.40;;
4206;SDS011;2117;47.972;7.830;2023-07-02T01:49:24;4.80;;;3.83;;
4206;SDS011;2117;47.972;7.830;2023-07-02T01:51:53;7.63;;;4.93;;
4206;SDS011;2117;47.972;7.830;2023-07-02T01:54:20;7.70;;;4.60;;
4206;SDS011;2117;47.972;7.830;2023-07-02T01:56:47;7.27;;;4.93;;
4206;SDS011;2117;47.972;7.830;2023-07-02T01:59:13;6.33;;;4.30;;
4206;SDS011;2117;47.972;7.830;2023-07-02T02:01:39;6.47;;;4.73;;
4206;SDS011;2117;47.972;7.830;2023-07-02T02:04:05;6.40;;;4.60;;
4206;SDS011;2117;47.972;7.830;2023-07-02T02:06:35;4.60;;;4.10;;
4206;SDS011;2117;47.972;7.830;2023-07-02T02:09:02;5.50;;;4.30;;
4206;SDS011;2117;47.972;7.830;2023-07-02T02:11:29;7.33;;;4.40;;
4206;SDS011;2117;47.972;7.830;2023-07-02T02:13:55;6.67;;;4.63;;
4206;SDS011;2117;47.972;7.830;2023-07-02T02:16:20;5.83;;;4.50;;
4206;SDS011;2117;47.972;7.830;2023-07-02T02:18:46;7.17;;;4.40;;
4206;SDS011;2117;47.972;7.830;2023-07-02T02:21:12;7.73;;;4.40;;
4206;SDS011;2117;47.972;7.830;2023-07-02T02:23:37;6.87;;;4.57;;
4206;SDS011;2117;47.972;7.830;2023-07-02T02:26:03;8.43;;;4.27;;
4206;SDS011;2117;47.972;7.830;2023-07-02T02:28:28;8.73;;;4.47;;
4206;SDS011;2117;47.972;7.830;2023-07-02T02:30:54;9.27;;;4.80;;
4206;SDS011;2117;47.972;7.830;2023-07-02T02:33:20;7.07;;;4.73;;
4206;SDS011;2117;47.972;7.830;2023-07-02T02:35:46;4.70;;;3.67;;
4206;SDS011;2117;47.972;7.830;2023-07-02T02:38:13;5.33;;;4.17;;
4206;SDS011;2117;47.972;7.830;2023-07-02T02:40:39;8.43;;;3.90;;
4206;SDS011;2117;47.972;7.830;2023-07-02T02:43:05;5.23;;;3.57;;
4206;SDS011;2117;47.972;7.830;2023-07-02T02:45:30;5.40;;;4.50;;
4206;SDS011;2117;47.972;7.830;2023-07-02T02:47:56;10.40;;;4.80;;
4206;SDS011;2117;47.972;7.830;2023-07-02T02:50:22;6.93;;;4.63;;
4206;SDS011;2117;47.972;7.830;2023-07-02T02:52:47;7.00;;;4.57;;
4206;SDS011;2117;47.972;7.830;2023-07-02T02:55:13;5.03;;;4.20;;
4206;SDS011;2117;47.972;7.830;2023-07-02T02:57:38;7.40;;;4.70;;
4206;SDS011;2117;47.972;7.830;2023-07-02T03:00:04;5.60;;;4.70;;
4206;SDS011;2117;47.972;7.830;2023-07-02T03:02:31;8.20;;;4.57;;
4206;SDS011;2117;47.972;7.830;2023-07-02T03:04:57;6.90;;;4.77;;
4206;SDS011;2117;47.972;7.830;2023-07-02T03:07:27;7.90;;;4.70;;
4206;SDS011;2117;47.972;7.830;2023-07-02T03:09:53;8.87;;;5.07;;
4206;SDS011;2117;47.972;7.830;2023-07-02T03:12:19;7.50;;;5.60;;
4206;SDS011;2117;47.972;7.830;2023-07-02T03:14:44;8.30;;;4.80;;
4206;SDS011;2117;47.972;7.830;2023-07-02T03:17:12;15.40;;;5.73;;
4206;SDS011;2117;47.972;7.830;2023-07-02T03:19:38;7.93;;;4.97;;
4206;SDS011;2117;47.972;7.830;2023-07-02T03:22:03;14.50;;;4.87;;
4206;SDS011;2117;47.972;7.830;2023-07-02T03:24:29;9.13;;;5.23;;
4206;SDS011;2117;47.972;7.830;2023-07-02T03:26:55;9.73;;;5.30;;
4206;SDS011;2117;47.972;7.830;2023-07-02T03:29:20;10.07;;;5.70;;
4206;SDS011;2117;47.972;7.830;2023-07-02T03:31:46;10.90;;;5.80;;
4206;SDS011;2117;47.972;7.830;2023-07-02T03:34:12;11.10;;;6.40;;
4206;SDS011;2117;47.972;7.830;2023-07-02T03:36:37;10.33;;;5.70;;
4206;SDS011;2117;47.972;7.830;2023-07-02T03:39:03;10.40;;;5.87;;
4206;SDS011;2117;47.972;7.830;2023-07-02T03:41:29;10.67;;;5.23;;
4206;SDS011;2117;47.972;7.830;2023-07-02T03:43:55;13.83;;;6.80;;
4206;SDS011;2117;47.972;7.830;2023-07-02T03:46:20;8.77;;;5.63;;
4206;SDS011;2117;47.972;7.830;2023-07-02T03:48:46;10.23;;;5.70;;
4206;SDS011;2117;47.972;7.830;2023-07-02T03:51:11;10.23;;;6.13;;
4206;SDS011;2117;47.972;7.830;2023-07-02T03:53:40;10.27;;;6.07;;
4206;SDS011;2117;47.972;7.830;2023-07-02T03:56:06;13.13;;;6.10;;
4206;SDS011;2117;47.972;7.830;2023-07-02T03:58:32;11.40;;;7.27;;
4206;SDS011;2117;47.972;7.830;2023-07-02T04:00:58;18.43;;;9.77;;
4206;SDS011;2117;47.972;7.830;2023-07-02T04:03:24;17.00;;;8.67;;
4206;SDS011;2117;47.972;7.830;2023-07-02T04:05:50;20.00;;;9.27;;
4206;SDS011;2117;47.972;7.830;2023-07-02T04:08:15;19.90;;;9.83;;
4206;SDS011;2117;47.972;7.830;2023-07-02T04:10:41;14.80;;;10.10;;
4206;SDS011;2117;47.972;7.830;2023-07-02T04:13:07;17.20;;;11.43;;
4206;SDS011;2117;47.972;7.830;2023-07-02T04:15:32;17.13;;;11.00;;
4206;SDS011;2117;47.972;7.830;2023-07-02T04:17:59;18.87;;;12.20;;
4206;SDS011;2117;47.972;7.830;2023-07-02T04:20:24;24.03;;;13.67;;
4206;SDS011;2117;47.972;7.830;2023-07-02T04:22:50;18.33;;;11.30;;
4206;SDS011;2117;47.972;7.830;2023-07-02T04:25:16;19.70;;;12.80;;
4206;SDS011;2117;47.972;7.830;2023-07-02T04:27:42;23.53;;;13.53;;
4206;SDS011;2117;47.972;7.830;2023-07-02T04:30:09;24.80;;;13.90;;
4206;SDS011;2117;47.972;7.830;2023-07-02T04:32:36;28.60;;;14.50;;
4206;SDS011;2117;47.972;7.830;2023-07-02T04:35:04;27.27;;;14.23;;
4206;SDS011;2117;47.972;7.830;2023-07-02T04:37:33;21.20;;;13.60;;
4206;SDS011;2117;47.972;7.830;2023-07-02T04:39:59;21.60;;;14.90;;
4206;SDS011;2117;47.972;7.830;2023-07-02T04:42:25;25.43;;;16.67;;
4206;SDS011;2117;47.972;7.830;2023-07-02T04:44:55;34.80;;;16.00;;
4206;SDS011;2117;47.972;7.830;2023-07-02T04:47:21;29.10;;;16.90;;
4206;SDS011;2117;47.972;7.830;2023-07-02T04:49:46;25.17;;;14.70;;
4206;SDS011;2117;47.972;7.830;2023-07-02T04:52:12;23.37;;;15.60;;
4206;SDS011;2117;47.972;7.830;2023-07-02T04:54:38;26.13;;;15.90;;
4206;SDS011;2117;47.972;7.830;2023-07-02T04:57:03;28.97;;;17.23;;
4206;SDS011;2117;47.972;7.830;2023-07-02T04:59:29;31.23;;;17.83;;
4206;SDS011;2117;47.972;7.830;2023-07-02T05:01:54;22.27;;;15.67;;
4206;SDS011;2117;47.972;7.830;2023-07-02T05:04:20;25.57;;;15.80;;
4206;SDS011;2117;47.972;7.830;2023-07-02T05:06:45;28.93;;;18.30;;
4206;SDS011;2117;47.972;7.830;2023-07-02T05:09:11;29.50;;;17.73;;
4206;SDS011;2117;47.972;7.830;2023-07-02T05:11:37;32.50;;;17.17;;
4206;SDS011;2117;47.972;7.830;2023-07-02T05:14:02;29.13;;;16.43;;
4206;SDS011;2117;47.972;7.830;2023-07-02T05:16:28;35.57;;;19.90;;
4206;SDS011;2117;47.972;7.830;2023-07-02T05:18:53;30.70;;;17.93;;
4206;SDS011;2117;47.972;7.830;2023-07-02T05:21:19;29.30;;;18.20;;
4206;SDS011;2117;47.972;7.830;2023-07-02T05:23:45;36.93;;;18.13;;
4206;SDS011;2117;47.972;7.830;2023-07-02T05:26:12;30.97;;;18.77;;
4206;SDS011;2117;47.972;7.830;2023-07-02T05:28:37;30.83;;;17.63;;
4206;SDS011;2117;47.972;7.830;2023-07-02T05:31:03;33.70;;;18.37;;
4206;SDS011;2117;47.972;7.830;2023-07-02T05:33:28;32.30;;;20.53;;
4206;SDS011;2117;47.972;7.830;2023-07-02T05:35:56;28.80;;;17.57;;
4206;SDS011;2117;47.972;7.830;2023-07-02T05:38:21;33.80;;;19.37;;
4206;SDS011;2117;47.972;7.830;2023-07-02T05:40:47;28.83;;;18.47;;
4206;SDS011;2117;47.972;7.830;2023-07-02T05:43:13;30.20;;;20.10;;
4206;SDS011;2117;47.972;7.830;2023-07-02T05:45:39;32.20;;;18.57;;
4206;SDS011;2117;47.972;7.830;2023-07-02T05:48:04;27.83;;;19.13;;
4206;SDS011;2117;47.972;7.830;2023-07-02T05:50:30;33.97;;;18.97;;
4206;SDS011;2117;47.972;7.830;2023-07-02T05:52:56;33.77;;;18.50;;
4206;SDS011;2117;47.972;7.830;2023-07-02T05:55:22;30.10;;;19.27;;
4206;SDS011;2117;47.972;7.830;2023-07-02T05:57:48;32.53;;;19.27;;
4206;SDS011;2117;47.972;7.830;2023-07-02T06:00:14;34.13;;;19.93;;
4206;SDS011;2117;47.972;7.830;2023-07-02T06:02:40;28.03;;;20.00;;
4206;SDS011;2117;47.972;7.830;2023-07-02T06:05:05;33.63;;;18.97;;
4206;SDS011;2117;47.972;7.830;2023-07-02T06:07:31;36.37;;;20.63;;
4206;SDS011;2117;47.972;7.830;2023-07-02T06:09:57;35.43;;;22.83;;
4206;SDS011;2117;47.972;7.830;2023-07-02T06:12:22;33.43;;;20.73;;
4206;SDS011;2117;47.972;7.830;2023-07-02T06:14:48;33.13;;;21.00;;
4206;SDS011;2117;47.972;7.830;2023-07-02T06:17:14;28.00;;;19.00;;
4206;SDS011;2117;47.972;7.830;2023-07-02T06:19:40;37.93;;;22.40;;
4206;SDS011;2117;47.972;7.830;2023-07-02T06:22:06;31.73;;;19.93;;
4206;SDS011;2117;47.972;7.830;2023-07-02T06:24:31;39.50;;;22.10;;
4206;SDS011;2117;47.972;7.830;2023-07-02T06:26:57;28.30;;;19.90;;
4206;SDS011;2117;47.972;7.830;2023-07-02T06:29:23;33.40;;;20.57;;
4206;SDS011;2117;47.972;7.830;2023-07-02T06:31:49;31.73;;;18.80;;
4206;SDS011;2117;47.972;7.830;2023-07-02T06:34:15;31.53;;;21.33;;
4206;SDS011;2117;47.972;7.830;2023-07-02T06:36:41;39.00;;;23.47;;
4206;SDS011;2117;47.972;7.830;2023-07-02T06:39:07;26.37;;;18.33;;
4206;SDS011;2117;47.972;7.830;2023-07-02T06:41:34;40.83;;;21.40;;
4206;SDS011;2117;47.972;7.830;2023-07-02T06:44:00;33.40;;;21.17;;
4206;SDS011;2117;47.972;7.830;2023-07-02T06:46:26;39.83;;;20.73;;
4206;SDS011;2117;47.972;7.830;2023-07-02T06:48:52;41.23;;;22.37;;
4206;SDS011;2117;47.972;7.830;2023-07-02T06:51:18;33.53;;;21.27;;
4206;SDS011;2117;47.972;7.830;2023-07-02T06:53:44;35.67;;;21.80;;
4206;SDS011;2117;47.972;7.830;2023-07-02T06:56:10;34.53;;;21.60;;
4206;SDS011;2117;47.972;7.830;2023-07-02T06:58:35;29.33;;;20.40;;
4206;SDS011;2117;47.972;7.830;2023-07-02T07:01:01;36.63;;;21.53;;
4206;SDS011;2117;47.972;7.830;2023-07-02T07:03:27;38.30;;;22.40;;
4206;SDS011;2117;47.972;7.830;2023-07-02T07:05:53;33.80;;;21.40;;
4206;SDS011;2117;47.972;7.830;2023-07-02T07:08:19;35.97;;;21.70;;
4206;SDS011;2117;47.972;7.830;2023-07-02T07:10:44;34.50;;;20.63;;
4206;SDS011;2117;47.972;7.830;2023-07-02T07:13:13;37.70;;;22.90;;
4206;SDS011;2117;47.972;7.830;2023-07-02T07:15:39;34.20;;;21.17;;
4206;SDS011;2117;47.972;7.830;2023-07-02T07:18:04;34.73;;;21.70;;
4206;SDS011;2117;47.972;7.830;2023-07-02T07:20:30;35.00;;;21.47;;
4206;SDS011;2117;47.972;7.830;2023-07-02T07:22:56;37.10;;;23.90;;
4206;SDS011;2117;47.972;7.830;2023-07-02T07:25:22;46.33;;;21.60;;
4206;SDS011;2117;47.972;7.830;2023-07-02T07:27:48;42.80;;;23.37;;
4206;SDS011;2117;47.972;7.830;2023-07-02T07:30:13;41.73;;;22.53;;
4206;SDS011;2117;47.972;7.830;2023-07-02T07:32:39;39.33;;;25.10;;
4206;SDS011;2117;47.972;7.830;2023-07-02T07:35:06;35.03;;;22.17;;
4206;SDS011;2117;47.972;7.830;2023-07-02T07:37:32;36.13;;;22.73;;
4206;SDS011;2117;47.972;7.830;2023-07-02T07:39:58;35.87;;;22.90;;
4206;SDS011;2117;47.972;7.830;2023-07-02T07:42:24;39.07;;;24.70;;
4206;SDS011;2117;47.972;7.830;2023-07-02T07:44:49;41.40;;;24.80;;
4206;SDS011;2117;47.972;7.830;2023-07-02T07:47:15;40.90;;;26.10;;
4206;SDS011;2117;47.972;7.830;2023-07-02T07:49:40;39.10;;;25.33;;
4206;SDS011;2117;47.972;7.830;2023-07-02T07:52:07;37.87;;;24.13;;
4206;SDS011;2117;47.972;7.830;2023-07-02T07:54:34;49.67;;;27.03;;
4206;SDS011;2117;47.972;7.830;2023-07-02T07:57:00;47.70;;;28.50;;
4206;SDS011;2117;47.972;7.830;2023-07-02T07:59:26;38.63;;;25.30;;
4206;SDS011;2117;47.972;7.830;2023-07-02T08:01:52;42.63;;;26.23;;
4206;SDS011;2117;47.972;7.830;2023-07-02T08:04:17;49.90;;;25.40;;
4206;SDS011;2117;47.972;7.830;2023-07-02T08:06:43;42.73;;;26.10;;
4206;SDS011;2117;47.972;7.830;2023-07-02T08:09:09;39.23;;;25.40;;
4206;SDS011;2117;47.972;7.830;2023-07-02T08:11:35;39.53;;;25.20;;
4206;SDS011;2117;47.972;7.830;2023-07-02T08:14:01;40.97;;;25.10;;
4206;SDS011;2117;47.972;7.830;2023-07-02T08:16:26;42.57;;;25.17;;
4206;SDS011;2117;47.972;7.830;2023-07-02T08:18:52;41.03;;;26.40;;
4206;SDS011;2117;47.972;7.830;2023-07-02T08:21:17;39.67;;;26.53;;
4206;SDS011;2117;47.972;7.830;2023-07-02T08:23:43;33.00;;;24.27;;
4206;SDS011;2117;47.972;7.830;2023-07-02T08:26:09;45.30;;;25.33;;
4206;SDS011;2117;47.972;7.830;2023-07-02T08:28:36;40.80;;;27.00;;
4206;SDS011;2117;47.972;7.830;2023-07-02T08:31:03;42.63;;;25.50;;
4206;SDS011;2117;47.972;7.830;2023-07-02T08:33:28;39.27;;;26.03;;
4206;SDS011;2117;47.972;7.830;2023-07-02T08:35:54;39.97;;;26.57;;
4206;SDS011;2117;47.972;7.830;2023-07-02T08:38:20;40.93;;;24.20;;
4206;SDS011;2117;47.972;7.830;2023-07-02T08:40:46;46.90;;;25.37;;
4206;SDS011;2117;47.972;7.830;2023-07-02T08:43:13;36.03;;;26.30;;
4206;SDS011;2117;47.972;7.830;2023-07-02T08:45:40;40.67;;;25.73;;
4206;SDS011;2117;47.972;7.830;2023-07-02T08:48:07;43.27;;;26.60;;
4206;SDS011;2117;47.972;7.830;2023-07-02T08:50:33;36.70;;;24.43;;
4206;SDS011;2117;47.972;7.830;2023-07-02T08:52:58;51.40;;;25.60;;
4206;SDS011;2117;47.972;7.830;2023-07-02T08:55:24;43.87;;;25.13;;
4206;SDS011;2117;47.972;7.830;2023-07-02T08:57:51;42.27;;;25.70;;
4206;SDS011;2117;47.972;7.830;2023-07-02T09:00:18;35.83;;;23.40;;
4206;SDS011;2117;47.972;7.830;2023-07-02T09:02:44;37.03;;;26.87;;
4206;SDS011;2117;47.972;7.830;2023-07-02T09:05:12;41.47;;;25.83;;
4206;SDS011;2117;47.972;7.830;2023-07-02T09:07:47;39.63;;;24.47;;
4206;SDS011;2117;47.972;7.830;2023-07-02T09:10:26;47.53;;;25.60;;
4206;SDS011;2117;47.972;7.830;2023-07-02T09:13:05;42.77;;;25.37;;
4206;SDS011;2117;47.972;7.830;2023-07-02T09:15:35;42.23;;;26.93;;
4206;SDS011;2117;47.972;7.830;2023-07-02T09:18:02;46.17;;;26.40;;
4206;SDS011;2117;47.972;7.830;2023-07-02T09:20:38;35.80;;;24.30;;
4206;SDS011;2117;47.972;7.830;2023-07-02T09:23:04;47.50;;;27.07;;
4206;SDS011;2117;47.972;7.830;2023-07-02T09:25:39;41.10;;;24.40;;
4206;SDS011;2117;47.972;7.830;2023-07-02T09:28:15;37.70;;;24.50;;
4206;SDS011;2117;47.972;7.830;2023-07-02T09:30:50;34.93;;;24.33;;
4206;SDS011;2117;47.972;7.830;2023-07-02T09:33:17;42.17;;;26.67;;
4206;SDS011;2117;47.972;7.830;2023-07-02T09:35:43;36.63;;;24.97;;
4206;SDS011;2117;47.972;7.830;2023-07-02T09:38:09;39.87;;;26.40;;
4206;SDS011;2117;47.972;7.830;2023-07-02T09:40:44;40.97;;;25.03;;
4206;SDS011;2117;47.972;7.830;2023-07-02T09:43:11;37.97;;;25.10;;
4206;SDS011;2117;47.972;7.830;2023-07-02T09:45:40;44.83;;;24.77;;
4206;SDS011;2117;47.972;7.830;2023-07-02T09:48:09;44.17;;;25.30;;
4206;SDS011;2117;47.972;7.830;2023-07-02T09:50:42;41.80;;;24.70;;
4206;SDS011;2117;47.972;7.830;2023-07-02T09:53:10;37.50;;;25.73;;
4206;SDS011;2117;47.972;7.830;2023-07-02T09:55:37;34.63;;;25.13;;
4206;SDS011;2117;47.972;7.830;2023-07-02T09:58:03;37.73;;;25.53;;
4206;SDS011;2117;47.972;7.830;2023-07-02T10:00:29;38.30;;;24.83;;
4206;SDS011;2117;47.972;7.830;2023-07-02T10:02:55;32.27;;;23.63;;
4206;SDS011;2117;47.972;7.830;2023-07-02T10:05:27;36.80;;;25.17;;
4206;SDS011;2117;47.972;7.830;2023-07-02T10:07:55;36.00;;;25.23;;
4206;SDS011;2117;47.972;7.830;2023-07-02T10:10:36;33.43;;;21.83;;
4206;SDS011;2117;47.972;7.830;2023-07-02T10:13:01;34.10;;;23.90;;
4206;SDS011;2117;47.972;7.830;2023-07-02T10:15:28;33.37;;;23.90;;
4206;SDS011;2117;47.972;7.830;2023-07-02T10:17:57;31.27;;;21.73;;
4206;SDS011;2117;47.972;7.830;2023-07-02T10:20:37;35.90;;;23.40;;
4206;SDS011;2117;47.972;7.830;2023-07-02T10:23:04;33.20;;;24.77;;
4206;SDS011;2117;47.972;7.830;2023-07-02T10:25:32;32.47;;;22.00;;
4206;SDS011;2117;47.972;7.830;2023-07-02T10:28:00;31.43;;;21.73;;
4206;SDS011;2117;47.972;7.830;2023-07-02T10:30:45;32.40;;;22.00;;
4206;SDS011;2117;47.972;7.830;2023-07-02T10:33:11;33.20;;;22.30;;
4206;SDS011;2117;47.972;7.830;2023-07-02T10:35:39;36.17;;;23.10;;
4206;SDS011;2117;47.972;7.830;2023-07-02T10:40:43;35.47;;;23.13;;
4206;SDS011;2117;47.972;7.830;2023-07-02T10:43:09;34.77;;;22.57;;
4206;SDS011;2117;47.972;7.830;2023-07-02T10:45:35;35.60;;;22.27;;
4206;SDS011;2117;47.972;7.830;2023-07-02T10:48:04;33.90;;;21.97;;
4206;SDS011;2117;47.972;7.830;2023-07-02T10:50:36;35.60;;;21.47;;
4206;SDS011;2117;47.972;7.830;2023-07-02T10:53:02;36.80;;;22.90;;
4206;SDS011;2117;47.972;7.830;2023-07-02T10:55:28;32.30;;;20.90;;
4206;SDS011;2117;47.972;7.830;2023-07-02T10:58:06;28.97;;;20.53;;
4206;SDS011;2117;47.972;7.830;2023-07-02T11:00:42;29.83;;;20.63;;
4206;SDS011;2117;47.972;7.830;2023-07-02T11:03:19;32.27;;;22.30;;
4206;SDS011;2117;47.972;7.830;2023-07-02T11:05:45;30.37;;;21.50;;
4206;SDS011;2117;47.972;7.830;2023-07-02T11:08:12;26.63;;;20.10;;
4206;SDS011;2117;47.972;7.830;2023-07-02T11:10:38;27.50;;;19.77;;
4206;SDS011;2117;47.972;7.830;2023-07-02T11:13:10;28.43;;;18.80;;
4206;SDS011;2117;47.972;7.830;2023-07-02T11:15:43;28.60;;;20.90;;
4206;SDS011;2117;47.972;7.830;2023-07-02T11:18:13;30.70;;;21.30;;
4206;SDS011;2117;47.972;7.830;2023-07-02T11:20:44;25.30;;;18.30;;
4206;SDS011;2117;47.972;7.830;2023-07-02T11:23:20;33.40;;;21.07;;
4206;SDS011;2117;47.972;7.830;2023-07-02T11:26:00;33.93;;;20.00;;
4206;SDS011;2117;47.972;7.830;2023-07-02T11:28:26;28.03;;;19.23;;
4206;SDS011;2117;47.972;7.830;2023-07-02T11:30:52;30.83;;;20.77;;
4206;SDS011;2117;47.972;7.830;2023-07-02T11:33:18;23.87;;;18.80;;
4206;SDS011;2117;47.972;7.830;2023-07-02T11:35:45;29.13;;;20.10;;
4206;SDS011;2117;47.972;7.830;2023-07-02T11:38:11;26.43;;;19.63;;
4206;SDS011;2117;47.972;7.830;2023-07-02T11:40:37;29.23;;;19.20;;
4206;SDS011;2117;47.972;7.830;2023-07-02T11:43:03;28.17;;;19.50;;
4206;SDS011;2117;47.972;7.830;2023-07-02T11:45:29;30.37;;;19.83;;
4206;SDS011;2117;47.972;7.830;2023-07-02T11:47:54;28.33;;;19.50;;
4206;SDS011;2117;47.972;7.830;2023-07-02T11:50:20;30.87;;;22.03;;
4206;SDS011;2117;47.972;7.830;2023-07-02T11:52:45;24.50;;;18.63;;
4206;SDS011;2117;47.972;7.830;2023-07-02T11:55:11;29.93;;;19.20;;
4206;SDS011;2117;47.972;7.830;2023-07-02T11:57:36;25.83;;;19.00;;
4206;SDS011;2117;47.972;7.830;2023-07-02T12:00:03;29.13;;;19.27;;
4206;SDS011;2117;47.972;7.830;2023-07-02T12:02:29;29.67;;;19.80;;
4206;SDS011;2117;47.972;7.830;2023-07-02T12:04:55;29.97;;;20.20;;
4206;SDS011;2117;47.972;7.830;2023-07-02T12:07:20;26.70;;;19.40;;
4206;SDS011;2117;47.972;7.830;2023-07-02T12:09:46;27.40;;;21.20;;
4206;SDS011;2117;47.972;7.830;2023-07-02T12:12:11;28.20;;;19.33;;
4206;SDS011;2117;47.972;7.830;2023-07-02T12:14:37;27.20;;;18.70;;
4206;SDS011;2117;47.972;7.830;2023-07-02T12:17:06;30.17;;;21.50;;
4206;SDS011;2117;47.972;7.830;2023-07-02T12:19:32;26.90;;;19.63;;
4206;SDS011;2117;47.972;7.830;2023-07-02T12:21:57;25.80;;;17.53;;
4206;SDS011;2117;47.972;7.830;2023-07-02T12:24:23;29.10;;;19.77;;
4206;SDS011;2117;47.972;7.830;2023-07-02T12:26:48;28.80;;;20.30;;
4206;SDS011;2117;47.972;7.830;2023-07-02T12:29:14;25.87;;;17.93;;
4206;SDS011;2117;47.972;7.830;2023-07-02T12:31:40;25.03;;;18.13;;
4206;SDS011;2117;47.972;7.830;2023-07-02T12:34:05;22.63;;;17.80;;
4206;SDS011;2117;47.972;7.830;2023-07-02T12:36:31;23.40;;;17.87;;
4206;SDS011;2117;47.972;7.830;2023-07-02T12:38:56;23.80;;;18.00;;
4206;SDS011;2117;47.972;7.830;2023-07-02T12:41:22;25.63;;;17.73;;
4206;SDS011;2117;47.972;7.830;2023-07-02T12:43:47;23.90;;;17.23;;
4206;SDS011;2117;47.972;7.830;2023-07-02T12:46:13;22.37;;;17.87;;
4206;SDS011;2117;47.972;7.830;2023-07-02T12:48:39;24.73;;;18.00;;
4206;SDS011;2117;47.972;7.830;2023-07-02T12:51:04;25.17;;;18.83;;
4206;SDS011;2117;47.972;7.830;2023-07-02T12:53:30;24.80;;;19.13;;
4206;SDS011;2117;47.972;7.830;2023-07-02T12:55:55;23.27;;;17.67;;
4206;SDS011;2117;47.972;7.830;2023-07-02T12:58:21;24.73;;;20.00;;
4206;SDS011;2117;47.972;7.830;2023-07-02T13:00:46;25.97;;;19.87;;
4206;SDS011;2117;47.972;7.830;2023-07-02T13:03:12;26.83;;;19.60;;
4206;SDS011;2117;47.972;7.830;2023-07-02T13:05:38;23.27;;;18.63;;
4206;SDS011;2117;47.972;7.830;2023-07-02T13:08:05;23.73;;;18.50;;
4206;SDS011;2117;47.972;7.830;2023-07-02T13:10:31;27.53;;;19.07;;
4206;SDS011;2117;47.972;7.830;2023-07-02T13:12:57;26.17;;;19.17;;
4206;SDS011;2117;47.972;7.830;2023-07-02T13:15:23;23.60;;;18.80;;
4206;SDS011;2117;47.972;7.830;2023-07-02T13:17:48;25.40;;;19.63;;
4206;SDS011;2117;47.972;7.830;2023-07-02T13:20:14;25.40;;;19.30;;
4206;SDS011;2117;47.972;7.830;2023-07-02T13:22:40;22.60;;;17.90;;
4206;SDS011;2117;47.972;7.830;2023-07-02T13:25:06;26.60;;;20.00;;
4206;SDS011;2117;47.972;7.830;2023-07-02T13:27:31;26.73;;;20.20;;
4206;SDS011;2117;47.972;7.830;2023-07-02T13:29:57;33.13;;;22.93;;
4206;SDS011;2117;47.972;7.830;2023-07-02T13:32:23;30.03;;;24.00;;
4206;SDS011;2117;47.972;7.830;2023-07-02T13:34:49;27.53;;;22.70;;
4206;SDS011;2117;47.972;7.830;2023-07-02T13:37:14;30.63;;;24.70;;
4206;SDS011;2117;47.972;7.830;2023-07-02T13:39:43;32.20;;;24.17;;
4206;SDS011;2117;47.972;7.830;2023-07-02T13:42:12;32.63;;;24.60;;
4206;SDS011;2117;47.972;7.830;2023-07-02T13:44:38;31.47;;;23.10;;
4206;SDS011;2117;47.972;7.830;2023-07-02T13:47:04;27.77;;;22.70;;
4206;SDS011;2117;47.972;7.830;2023-07-02T13:49:30;34.03;;;24.13;;
4206;SDS011;2117;47.972;7.830;2023-07-02T13:51:56;34.37;;;24.67;;
4206;SDS011;2117;47.972;7.830;2023-07-02T13:54:22;37.77;;;25.40;;
4206;SDS011;2117;47.972;7.830;2023-07-02T13:56:47;37.13;;;23.30;;
4206;SDS011;2117;47.972;7.830;2023-07-02T13:59:14;29.10;;;22.80;;
4206;SDS011;2117;47.972;7.830;2023-07-02T14:01:41;32.73;;;24.37;;
4206;SDS011;2117;47.972;7.830;2023-07-02T14:04:07;30.60;;;24.10;;
4206;SDS011;2117;47.972;7.830;2023-07-02T14:06:33;30.60;;;22.77;;
4206;SDS011;2117;47.972;7.830;2023-07-02T14:08:58;34.90;;;26.70;;
4206;SDS011;2117;47.972;7.830;2023-07-02T14:11:24;28.97;;;23.47;;
4206;SDS011;2117;47.972;7.830;2023-07-02T14:13:52;32.83;;;25.10;;
4206;SDS011;2117;47.972;7.830;2023-07-02T14:16:18;28.37;;;23.60;;
4206;SDS011;2117;47.972;7.830;2023-07-02T14:18:44;26.77;;;22.30;;
4206;SDS011;2117;47.972;7.830;2023-07-02T14:21:09;25.03;;;19.50;;
4206;SDS011;2117;47.972;7.830;2023-07-02T14:23:35;27.63;;;22.90;;
4206;SDS011;2117;47.972;7.830;2023-07-02T14:26:01;27.10;;;21.87;;
4206;SDS011;2117;47.972;7.830;2023-07-02T14:28:26;25.27;;;20.63;;
4206;SDS011;2117;47.972;7.830;2023-07-02T14:30:58;28.47;;;23.80;;
4206;SDS011;2117;47.972;7.830;2023-07-02T14:33:25;30.67;;;22.23;;
4206;SDS011;2117;47.972;7.830;2023-07-02T14:35:52;27.30;;;22.30;;
4206;SDS011;2117;47.972;7.830;2023-07-02T14:38:17;27.17;;;24.27;;
4206;SDS011;2117;47.972;7.830;2023-07-02T14:40:43;26.37;;;21.00;;
4206;SDS011;2117;47.972;7.830;2023-07-02T14:43:08;29.90;;;20.23;;
4206;SDS011;2117;47.972;7.830;2023-07-02T14:45:34;25.05;;;21.38;;
4206;SDS011;2117;47.972;7.830;2023-07-02T14:48:00;24.88;;;19.77;;
4206;SDS011;2117;47.972;7.830;2023-07-02T14:50:26;23.30;;;20.70;;
4206;SDS011;2117;47.972;7.830;2023-07-02T14:52:52;23.63;;;20.70;;
4206;SDS011;2117;47.972;7.830;2023-07-02T14:55:18;22.60;;;18.90;;
4206;SDS011;2117;47.972;7.830;2023-07-02T14:57:43;26.73;;;18.63;;
4206;SDS011;2117;47.972;7.830;2023-07-02T15:00:09;23.37;;;19.97;;
4206;SDS011;2117;47.972;7.830;2023-07-02T15:02:35;27.60;;;21.45;;
4206;SDS011;2117;47.972;7.830;2023-07-02T15:05:00;21.20;;;19.00;;
4206;SDS011;2117;47.972;7.830;2023-07-02T15:07:27;23.48;;;19.98;;
4206;SDS011;2117;47.972;7.830;2023-07-02T15:09:53;22.67;;;19.40;;
4206;SDS011;2117;47.972;7.830;2023-07-02T15:12:18;23.30;;;18.45;;
4206;SDS011;2117;47.972;7.830;2023-07-02T15:14:44;24.88;;;19.75;;
4206;SDS011;2117;47.972;7.830;2023-07-02T15:17:10;25.30;;;18.42;;
4206;SDS011;2117;47.972;7.830;2023-07-02T15:19:35;24.35;;;18.58;;
4206;SDS011;2117;47.972;7.830;2023-07-02T15:22:01;22.00;;;18.70;;
4206;SDS011;2117;47.972;7.830;2023-07-02T15:24:27;21.80;;;16.77;;
4206;SDS011;2117;47.972;7.830;2023-07-02T15:26:52;24.43;;;19.17;;
4206;SDS011;2117;47.972;7.830;2023-07-02T15:29:18;19.67;;;17.37;;
4206;SDS011;2117;47.972;7.830;2023-07-02T15:31:43;21.40;;;18.50;;
4206;SDS011;2117;47.972;7.830;2023-07-02T15:34:11;22.67;;;17.20;;
4206;SDS011;2117;47.972;7.830;2023-07-02T15:36:41;20.10;;;17.80;;
4206;SDS011;2117;47.972;7.830;2023-07-02T15:39:07;24.63;;;20.10;;
4206;SDS011;2117;47.972;7.830;2023-07-02T15:41:32;21.17;;;17.67;;
4206;SDS011;2117;47.972;7.830;2023-07-02T15:43:58;25.90;;;19.17;;
4206;SDS011;2117;47.972;7.830;2023-07-02T15:46:28;21.63;;;17.50;;
4206;SDS011;2117;47.972;7.830;2023-07-02T15:48:54;23.98;;;19.35;;
4206;SDS011;2117;47.972;7.830;2023-07-02T15:51:19;25.52;;;18.95;;
4206;SDS011;2117;47.972;7.830;2023-07-02T15:53:45;24.30;;;20.35;;
4206;SDS011;2117;47.972;7.830;2023-07-02T15:56:11;25.33;;;19.10;;
4206;SDS011;2117;47.972;7.830;2023-07-02T15:58:36;22.03;;;19.00;;